createdAt,value
2018-09-28T00:00:54.258Z,17.42
2018-09-28T00:03:23.214Z,17.36
2018-09-28T00:05:52.121Z,17.55
2018-09-28T00:08:21.091Z,17.42
2018-09-28T00:10:50.080Z,17.46
2018-09-28T00:13:19.176Z,17.40
2018-09-28T00:15:48.287Z,17.32
2018-09-28T00:18:17.383Z,17.39
2018-09-28T00:20:46.771Z,17.42
2018-09-28T00:23:15.669Z,17.45
2018-09-28T00:25:44.663Z,17.51
2018-09-28T00:28:13.923Z,17.44
2018-09-28T00:30:43.017Z,17.49
2018-09-28T00:33:11.973Z,17.47
2018-09-28T00:35:41.195Z,17.41
2018-09-28T00:38:10.161Z,17.22
2018-09-28T00:40:39.108Z,17.37
2018-09-28T00:43:08.115Z,17.40
2018-09-28T00:45:37.130Z,17.40
2018-09-28T00:48:06.096Z,17.46
2018-09-28T00:50:35.014Z,17.39
2018-09-28T00:53:04.128Z,17.27
2018-09-28T00:55:33.174Z,17.34
2018-09-28T00:58:02.272Z,17.26
2018-09-28T01:00:31.492Z,17.14
2018-09-28T01:03:00.497Z,17.26
2018-09-28T01:05:29.617Z,17.31
2018-09-28T01:07:58.870Z,17.29
2018-09-28T01:10:27.858Z,17.22
2018-09-28T01:12:56.812Z,17.21
2018-09-28T01:15:25.817Z,17.19
2018-09-28T01:17:54.903Z,17.19
2018-09-28T01:20:23.892Z,17.03
2018-09-28T01:22:53.035Z,17.05
2018-09-28T01:25:22.091Z,17.12
2018-09-28T01:27:51.065Z,17.22
2018-09-28T01:30:20.093Z,17.14
2018-09-28T01:32:49.173Z,17.19
2018-09-28T01:35:18.198Z,17.04
2018-09-28T01:37:47.181Z,17.10
2018-09-28T01:40:16.238Z,17.07
2018-09-28T01:42:45.412Z,16.97
2018-09-28T01:45:14.380Z,17.01
2018-09-28T01:47:43.432Z,16.96
2018-09-28T01:50:12.536Z,16.87
2018-09-28T01:52:41.598Z,16.88
2018-09-28T01:55:10.698Z,16.83
2018-09-28T01:57:39.890Z,16.73
2018-09-28T02:00:08.952Z,16.70
2018-09-28T02:02:37.981Z,16.80
2018-09-28T02:05:06.947Z,16.72
2018-09-28T02:07:35.881Z,16.78
2018-09-28T02:10:04.812Z,16.66
2018-09-28T02:12:33.794Z,16.54
2018-09-28T02:15:02.718Z,16.65
2018-09-28T02:17:31.813Z,16.35
2018-09-28T02:20:00.738Z,16.34
2018-09-28T02:22:29.664Z,16.64
2018-09-28T02:24:58.601Z,16.74
2018-09-28T02:27:27.529Z,16.58
2018-09-28T02:29:56.489Z,16.52
2018-09-28T02:32:25.410Z,16.35
2018-09-28T02:34:54.339Z,16.40
2018-09-28T02:37:23.248Z,16.37
2018-09-28T02:39:52.214Z,16.26
2018-09-28T02:42:21.130Z,16.04
2018-09-28T02:44:50.455Z,15.87
2018-09-28T02:47:19.381Z,15.92
2018-09-28T02:49:48.330Z,16.05
2018-09-28T02:52:17.302Z,15.98
2018-09-28T02:54:46.242Z,16.20
2018-09-28T02:57:15.261Z,15.96
2018-09-28T02:59:44.370Z,15.94
2018-09-28T03:02:13.341Z,15.99
2018-09-28T03:04:42.785Z,16.08
2018-09-28T03:07:11.742Z,16.03
2018-09-28T03:09:40.672Z,15.54
2018-09-28T03:12:09.630Z,15.65
2018-09-28T03:14:38.597Z,15.87
2018-09-28T03:17:07.506Z,15.68
2018-09-28T03:19:36.473Z,15.75
2018-09-28T03:22:05.405Z,15.55
2018-09-28T03:24:34.501Z,15.57
2018-09-28T03:27:03.455Z,15.65
2018-09-28T03:29:32.417Z,15.63
2018-09-28T03:32:01.371Z,15.86
2018-09-28T03:34:30.346Z,15.44
2018-09-28T03:36:59.454Z,15.35
2018-09-28T03:39:28.412Z,15.22
2018-09-28T03:41:57.403Z,15.26
2018-09-28T03:44:26.353Z,15.13
2018-09-28T03:46:55.299Z,14.75
2018-09-28T03:49:24.493Z,15.10
2018-09-28T03:51:53.420Z,15.00
2018-09-28T03:54:22.390Z,14.98
2018-09-28T03:56:51.355Z,14.81
2018-09-28T03:59:20.285Z,15.11
2018-09-28T04:01:49.233Z,14.74
2018-09-28T04:04:18.207Z,15.01
2018-09-28T04:06:47.137Z,14.90
2018-09-28T04:09:16.092Z,14.88
2018-09-28T04:11:45.058Z,14.83
2018-09-28T04:14:14.095Z,14.67
2018-09-28T04:16:43.160Z,14.65
2018-09-28T04:19:12.094Z,14.76
2018-09-28T04:21:45.250Z,14.51
2018-09-28T04:24:14.197Z,14.53
2018-09-28T04:26:43.150Z,14.62
2018-09-28T04:29:12.101Z,14.53
2018-09-28T04:31:41.065Z,14.58
2018-09-28T04:34:10.077Z,14.45
2018-09-28T04:36:39.017Z,14.57
2018-09-28T04:39:07.943Z,14.44
2018-09-28T04:41:36.926Z,14.37
2018-09-28T04:44:05.854Z,14.34
2018-09-28T04:46:35.279Z,14.37
2018-09-28T04:49:04.274Z,14.33
2018-09-28T04:51:33.212Z,14.49
2018-09-28T04:54:02.445Z,14.66
2018-09-28T04:56:31.665Z,14.48
2018-09-28T04:59:00.593Z,14.74
2018-09-28T05:01:29.670Z,14.82
2018-09-28T05:03:58.619Z,14.73
2018-09-28T05:06:27.565Z,14.62
2018-09-28T05:08:56.514Z,14.74
2018-09-28T05:11:25.464Z,14.47
2018-09-28T05:13:54.363Z,14.54
2018-09-28T05:16:23.315Z,14.33
2018-09-28T05:18:52.266Z,14.14
2018-09-28T05:21:21.197Z,14.20
2018-09-28T05:23:50.151Z,14.22
2018-09-28T05:26:19.044Z,14.41
2018-09-28T05:28:48.064Z,14.41
2018-09-28T05:31:17.013Z,14.51
2018-09-28T05:33:45.943Z,14.40
2018-09-28T05:36:14.958Z,14.26
2018-09-28T05:38:43.893Z,14.39
2018-09-28T05:41:12.841Z,14.17
2018-09-28T05:43:41.834Z,14.20
2018-09-28T05:46:10.809Z,14.45
2018-09-28T05:48:39.766Z,14.46
2018-09-28T05:51:08.754Z,14.28
2018-09-28T05:53:38.281Z,14.30
2018-09-28T05:56:07.312Z,14.52
2018-09-28T05:58:41.772Z,14.32
2018-09-28T06:01:16.014Z,14.30
2018-09-28T06:03:50.364Z,14.32
2018-09-28T06:06:19.278Z,14.53
2018-09-28T06:08:48.263Z,14.45
2018-09-28T06:11:17.252Z,14.26
2018-09-28T06:13:46.154Z,14.10
2018-09-28T06:16:15.041Z,14.20
2018-09-28T06:18:43.991Z,14.49
2018-09-28T06:21:12.885Z,14.51
2018-09-28T06:23:41.822Z,14.32
2018-09-28T06:26:10.936Z,14.29
2018-09-28T06:28:39.812Z,14.32
2018-09-28T06:31:08.765Z,14.36
2018-09-28T06:33:37.702Z,14.13
2018-09-28T06:36:06.671Z,14.39
2018-09-28T06:38:35.744Z,14.24
2018-09-28T06:41:04.677Z,14.36
2018-09-28T06:43:33.583Z,14.19
2018-09-28T06:46:02.558Z,14.26
2018-09-28T06:48:31.540Z,14.40
2018-09-28T06:51:00.472Z,14.26
2018-09-28T06:53:29.406Z,14.27
2018-09-28T06:55:58.307Z,14.07
2018-09-28T06:58:27.283Z,14.31
2018-09-28T07:00:56.212Z,14.36
2018-09-28T07:03:25.270Z,14.05
2018-09-28T07:05:54.259Z,14.07
2018-09-28T07:08:23.145Z,14.09
2018-09-28T07:10:52.151Z,14.06
2018-09-28T07:13:21.127Z,14.27
2018-09-28T07:15:50.088Z,13.91
2018-09-28T07:18:19.027Z,14.08
2018-09-28T07:20:48.026Z,14.34
2018-09-28T07:23:17.309Z,13.86
2018-09-28T07:25:46.240Z,14.24
2018-09-28T07:28:15.133Z,14.07
2018-09-28T07:30:44.136Z,14.21
2018-09-28T07:33:13.048Z,14.06
2018-09-28T07:35:42.000Z,13.97
2018-09-28T07:38:10.976Z,13.97
2018-09-28T07:40:39.892Z,13.87
2018-09-28T07:43:08.816Z,13.96
2018-09-28T07:45:37.761Z,14.16
2018-09-28T07:48:06.756Z,14.40
2018-09-28T07:50:35.696Z,14.22
2018-09-28T07:53:04.642Z,14.40
2018-09-28T07:55:33.613Z,14.50
2018-09-28T07:58:02.538Z,14.68
2018-09-28T08:00:31.649Z,14.59
2018-09-28T08:03:00.660Z,14.37
2018-09-28T08:05:29.617Z,14.37
2018-09-28T08:07:58.545Z,14.29
2018-09-28T08:10:27.479Z,14.47
2018-09-28T08:12:56.443Z,14.38
2018-09-28T08:15:25.657Z,14.39
2018-09-28T08:17:54.673Z,14.28
2018-09-28T08:20:23.589Z,14.46
2018-09-28T08:22:52.587Z,14.50
2018-09-28T08:25:21.846Z,14.56
2018-09-28T08:27:50.990Z,14.49
2018-09-28T08:30:19.977Z,14.46
2018-09-28T08:32:48.939Z,14.68
2018-09-28T08:35:18.244Z,14.38
2018-09-28T08:37:47.140Z,14.36
2018-09-28T08:40:16.060Z,14.49
2018-09-28T08:42:45.061Z,14.70
2018-09-28T08:45:13.993Z,14.57
2018-09-28T08:47:42.984Z,14.55
2018-09-28T08:50:11.905Z,14.66
2018-09-28T08:52:40.899Z,14.56
2018-09-28T08:55:09.881Z,14.57
2018-09-28T08:57:39.057Z,14.66
2018-09-28T09:00:08.017Z,14.57
2018-09-28T09:02:37.287Z,14.63
2018-09-28T09:05:06.206Z,14.81
2018-09-28T09:07:35.127Z,14.82
2018-09-28T09:10:04.086Z,14.82
2018-09-28T09:12:33.065Z,14.89
2018-09-28T09:15:02.045Z,15.00
2018-09-28T09:17:30.965Z,14.72
2018-09-28T09:19:59.959Z,14.65
2018-09-28T09:22:28.918Z,14.80
2018-09-28T09:24:58.061Z,14.74
2018-09-28T09:27:27.065Z,15.07
2018-09-28T09:29:56.053Z,15.08
2018-09-28T09:32:25.108Z,14.96
2018-09-28T09:34:54.075Z,14.95
2018-09-28T09:37:23.063Z,14.98
2018-09-28T09:39:52.057Z,14.94
2018-09-28T09:42:20.966Z,15.06
2018-09-28T09:44:49.894Z,14.97
2018-09-28T09:47:18.873Z,14.90
2018-09-28T09:49:47.794Z,15.02
2018-09-28T09:52:16.757Z,15.19
2018-09-28T09:54:45.965Z,15.11
2018-09-28T09:57:14.919Z,15.15
2018-09-28T09:59:43.848Z,15.25
2018-09-28T10:02:19.176Z,15.10
2018-09-28T10:04:48.106Z,15.09
2018-09-28T10:07:17.021Z,15.15
2018-09-28T10:09:46.095Z,15.21
2018-09-28T10:12:15.082Z,15.07
2018-09-28T10:14:44.063Z,15.34
2018-09-28T10:17:13.032Z,15.31
2018-09-28T10:19:42.053Z,15.43
2018-09-28T10:22:12.552Z,15.45
2018-09-28T10:24:41.442Z,15.62
2018-09-28T10:27:10.358Z,15.47
2018-09-28T10:29:39.389Z,15.36
2018-09-28T10:32:08.347Z,15.25
2018-09-28T10:34:37.359Z,15.18
2018-09-28T10:37:06.405Z,15.27
2018-09-28T10:39:35.377Z,15.50
2018-09-28T10:42:04.304Z,15.52
2018-09-28T10:44:33.257Z,15.50
2018-09-28T10:47:02.496Z,15.46
2018-09-28T10:49:31.540Z,15.31
2018-09-28T10:52:00.620Z,15.43
2018-09-28T10:54:29.503Z,15.62
2018-09-28T10:56:58.452Z,15.62
2018-09-28T10:59:27.551Z,15.67
2018-09-28T11:01:56.696Z,15.51
2018-09-28T11:04:25.766Z,15.41
2018-09-28T11:06:54.679Z,15.54
2018-09-28T11:09:23.672Z,15.81
2018-09-28T11:11:52.671Z,15.90
2018-09-28T11:14:21.615Z,15.82
2018-09-28T11:16:50.724Z,15.79
2018-09-28T11:19:19.755Z,16.07
2018-09-28T11:21:48.847Z,16.00
2018-09-28T11:24:17.842Z,16.07
2018-09-28T11:26:47.058Z,15.94
2018-09-28T11:29:16.129Z,15.96
2018-09-28T11:31:45.038Z,15.93
2018-09-28T11:34:14.545Z,15.92
2018-09-28T11:36:44.105Z,15.82
2018-09-28T11:39:13.117Z,15.65
2018-09-28T11:41:41.989Z,16.00
2018-09-28T11:44:11.189Z,16.09
2018-09-28T11:46:40.180Z,15.94
2018-09-28T11:49:09.183Z,16.16
2018-09-28T11:51:38.471Z,15.87
2018-09-28T11:54:07.436Z,15.82
2018-09-28T11:56:36.385Z,15.86
2018-09-28T11:59:05.619Z,15.73
2018-09-28T12:01:34.570Z,15.80
2018-09-28T12:04:03.475Z,15.73
2018-09-28T12:06:32.600Z,15.90
2018-09-28T12:09:01.404Z,15.96
2018-09-28T12:11:30.390Z,15.99
2018-09-28T12:13:59.338Z,15.92
2018-09-28T12:16:30.580Z,16.09
2018-09-28T12:18:59.499Z,15.94
2018-09-28T12:21:28.515Z,16.03
2018-09-28T12:23:57.422Z,16.25
2018-09-28T12:26:26.371Z,16.38
2018-09-28T12:28:55.276Z,16.50
2018-09-28T12:31:24.239Z,16.57
2018-09-28T12:33:53.215Z,16.60
2018-09-28T12:36:22.248Z,16.51
2018-09-28T12:38:51.587Z,16.44
2018-09-28T12:41:20.520Z,16.46
2018-09-28T12:43:49.459Z,16.30
2018-09-28T12:46:18.425Z,15.94
2018-09-28T12:48:47.363Z,15.87
2018-09-28T12:51:16.274Z,15.86
2018-09-28T12:53:45.317Z,16.19
2018-09-28T12:56:14.240Z,16.29
2018-09-28T12:58:43.191Z,16.24
2018-09-28T13:01:12.372Z,16.18
2018-09-28T13:03:41.460Z,16.27
2018-09-28T13:06:10.434Z,16.08
2018-09-28T13:08:39.345Z,16.14
2018-09-28T13:11:08.324Z,16.16
2018-09-28T13:13:37.356Z,16.19
2018-09-28T13:16:06.598Z,16.32
2018-09-28T13:18:35.553Z,16.55
2018-09-28T13:21:04.670Z,16.44
2018-09-28T13:23:33.601Z,16.41
2018-09-28T13:26:02.537Z,16.35
2018-09-28T13:28:32.191Z,16.43
2018-09-28T13:31:01.254Z,16.48
2018-09-28T13:33:30.401Z,16.52
2018-09-28T13:35:59.318Z,16.62
2018-09-28T13:38:28.704Z,16.47
2018-09-28T13:40:57.579Z,16.34
2018-09-28T13:43:26.650Z,16.06
2018-09-28T13:45:55.707Z,16.02
2018-09-28T13:48:24.690Z,15.80
2018-09-28T13:50:54.207Z,16.03
2018-09-28T13:53:23.111Z,16.13
2018-09-28T13:55:52.098Z,16.12
2018-09-28T13:58:21.129Z,16.13
2018-09-28T14:00:50.033Z,16.16
2018-09-28T14:03:19.052Z,16.37
2018-09-28T14:05:47.995Z,16.23
2018-09-28T14:08:16.955Z,16.23
2018-09-28T14:10:45.921Z,16.40
2018-09-28T14:13:14.801Z,16.23
2018-09-28T14:15:43.767Z,16.34
2018-09-28T14:18:12.821Z,16.41
2018-09-28T14:20:41.879Z,16.36
2018-09-28T14:23:11.038Z,16.30
2018-09-28T14:25:40.164Z,16.35
2018-09-28T14:28:09.346Z,15.99
2018-09-28T14:30:38.228Z,15.90
2018-09-28T14:33:07.145Z,16.17
2018-09-28T14:35:36.135Z,16.21
2018-09-28T14:38:05.178Z,16.16
2018-09-28T14:40:57.088Z,16.13
2018-09-28T14:43:45.117Z,16.10
2018-09-28T14:46:33.736Z,16.24
2018-09-28T14:49:23.247Z,16.22
2018-09-28T14:52:12.434Z,16.24
2018-09-28T14:55:14.153Z,16.10
2018-09-28T14:57:47.288Z,16.18
2018-09-28T15:00:34.483Z,16.29
2018-09-28T15:06:52.148Z,16.36
2018-09-28T15:09:47.048Z,16.38
2018-09-28T15:13:12.369Z,16.39
2018-09-28T15:19:04.878Z,16.07
2018-09-28T15:21:58.037Z,16.01
2018-09-28T15:24:46.879Z,16.15
2018-09-28T15:31:49.535Z,16.09
2018-09-28T15:34:27.418Z,16.01
2018-09-28T15:36:56.334Z,15.85
2018-09-28T15:39:25.251Z,16.03
2018-09-28T15:41:54.248Z,15.83
2018-09-28T15:44:23.221Z,15.90
2018-09-28T15:46:52.187Z,15.92
2018-09-28T15:49:21.131Z,15.79
2018-09-28T15:51:50.150Z,15.84
2018-09-28T15:54:19.114Z,16.01
2018-09-28T15:56:48.129Z,16.08
2018-09-28T15:59:17.074Z,16.01
2018-09-28T16:01:46.066Z,15.91
2018-09-28T16:04:15.069Z,15.84
2018-09-28T16:06:44.055Z,16.03
2018-09-28T16:09:13.002Z,15.93
2018-09-28T16:11:41.963Z,15.83
2018-09-28T16:14:11.014Z,15.69
2018-09-28T16:16:39.971Z,15.59
2018-09-28T16:19:08.936Z,15.59
2018-09-28T16:21:37.972Z,15.67
2018-09-28T16:24:07.067Z,15.50
2018-09-28T16:26:36.016Z,15.37
2018-09-28T16:29:05.100Z,15.59
2018-09-28T16:31:34.108Z,15.36
2018-09-28T16:34:04.049Z,15.46
2018-09-28T16:36:33.000Z,15.26
2018-09-28T16:39:01.973Z,15.55
2018-09-28T16:41:30.951Z,15.46
2018-09-28T16:43:59.942Z,15.56
2018-09-28T16:46:28.929Z,15.34
2018-09-28T16:48:57.873Z,15.16
2018-09-28T16:51:26.805Z,15.46
2018-09-28T16:53:55.772Z,15.34
2018-09-28T16:56:24.717Z,15.45
2018-09-28T16:58:53.738Z,15.10
2018-09-28T17:01:22.675Z,14.96
2018-09-28T17:03:51.700Z,15.02
2018-09-28T17:06:20.660Z,14.77
2018-09-28T17:08:49.654Z,14.90
2018-09-28T17:11:18.610Z,14.68
2018-09-28T17:13:47.519Z,14.70
2018-09-28T17:16:16.463Z,14.66
2018-09-28T17:18:45.448Z,14.71
2018-09-28T17:21:14.430Z,14.75
2018-09-28T17:23:43.394Z,14.60
2018-09-28T17:26:12.345Z,14.71
2018-09-28T17:28:41.418Z,14.36
2018-09-28T17:31:10.269Z,14.58
2018-09-28T17:33:39.260Z,14.58
2018-09-28T17:36:08.162Z,14.37
2018-09-28T17:38:37.406Z,14.46
2018-09-28T17:41:06.356Z,14.32
2018-09-28T17:43:35.287Z,14.49
2018-09-28T17:46:04.258Z,14.28
2018-09-28T17:48:33.180Z,14.61
2018-09-28T17:51:02.140Z,14.38
2018-09-28T17:53:31.080Z,14.52
2018-09-28T17:56:00.040Z,14.60
2018-09-28T17:58:28.970Z,14.57
2018-09-28T18:00:58.242Z,14.40
2018-09-28T18:03:27.163Z,14.57
2018-09-28T18:05:56.272Z,14.48
2018-09-28T18:08:25.272Z,14.20
2018-09-28T18:10:54.256Z,14.21
2018-09-28T18:13:23.304Z,14.15
2018-09-28T18:15:52.274Z,14.27
2018-09-28T18:18:21.199Z,14.24
2018-09-28T18:20:50.174Z,14.04
2018-09-28T18:23:19.124Z,13.99
2018-09-28T18:25:48.048Z,14.13
2018-09-28T18:28:17.036Z,14.00
2018-09-28T18:30:46.025Z,14.15
2018-09-28T18:33:15.536Z,14.23
2018-09-28T18:35:44.497Z,14.10
2018-09-28T18:38:13.851Z,13.94
2018-09-28T18:40:42.789Z,14.00
2018-09-28T18:43:11.749Z,13.97
2018-09-28T18:45:41.297Z,14.11
2018-09-28T18:48:10.219Z,14.07
2018-09-28T18:50:39.201Z,13.66
2018-09-28T18:53:08.170Z,13.81
2018-09-28T18:55:37.082Z,13.89
2018-09-28T18:58:06.181Z,13.87
2018-09-28T19:00:35.186Z,13.95
2018-09-28T19:03:04.134Z,13.74
2018-09-28T19:05:33.065Z,13.82
2018-09-28T19:08:02.060Z,13.59
2018-09-28T19:10:31.024Z,13.43
2018-09-28T19:13:00.024Z,13.73
2018-09-28T19:15:28.992Z,13.65
2018-09-28T19:17:57.946Z,13.70
2018-09-28T19:20:27.015Z,13.47
2018-09-28T19:22:55.948Z,13.47
2018-09-28T19:25:24.885Z,13.55
2018-09-28T19:27:53.906Z,13.46
2018-09-28T19:30:23.891Z,13.45
2018-09-28T19:32:52.860Z,13.52
2018-09-28T19:35:21.833Z,13.43
2018-09-28T19:37:50.800Z,13.25
2018-09-28T19:40:19.761Z,13.40
2018-09-28T19:42:48.718Z,13.31
2018-09-28T19:45:17.682Z,13.25
2018-09-28T19:47:46.686Z,13.10
2018-09-28T19:50:15.629Z,13.06
2018-09-28T19:52:44.533Z,13.24
2018-09-28T19:55:29.156Z,13.19
2018-09-28T19:58:04.247Z,13.08
2018-09-28T20:00:33.196Z,13.16
2018-09-28T20:03:02.108Z,13.00
2018-09-28T20:05:31.067Z,12.92
2018-09-28T20:08:01.260Z,13.19
2018-09-28T20:10:30.200Z,13.13
2018-09-28T20:12:59.156Z,12.94
2018-09-28T20:15:28.074Z,12.96
2018-09-28T20:17:57.049Z,12.97
2018-09-28T20:20:25.994Z,13.00
2018-09-28T20:22:54.953Z,12.92
2018-09-28T20:25:24.257Z,12.87
2018-09-28T20:27:53.226Z,12.95
2018-09-28T20:30:22.187Z,12.79
2018-09-28T20:32:51.198Z,12.76
2018-09-28T20:35:20.234Z,12.79
2018-09-28T20:37:49.331Z,12.78
2018-09-28T20:40:18.284Z,12.79
2018-09-28T20:42:47.228Z,12.70
2018-09-28T20:45:16.187Z,12.79
2018-09-28T20:47:45.143Z,12.76
2018-09-28T20:50:14.173Z,12.79
2018-09-28T20:52:43.278Z,12.74
2018-09-28T20:55:12.178Z,12.61
2018-09-28T20:57:41.648Z,12.62
2018-09-28T21:00:10.648Z,12.64
2018-09-28T21:02:39.567Z,12.52
2018-09-28T21:05:08.671Z,12.74
2018-09-28T21:07:37.663Z,12.59
2018-09-28T21:10:06.610Z,12.46
2018-09-28T21:12:35.594Z,12.55
2018-09-28T21:15:04.532Z,12.42
2018-09-28T21:17:33.516Z,12.49
2018-09-28T21:20:02.438Z,12.56
2018-09-28T21:22:31.406Z,12.33
2018-09-28T21:25:00.358Z,12.30
2018-09-28T21:27:29.357Z,12.28
2018-09-28T21:29:58.416Z,12.31
2018-09-28T21:32:27.338Z,12.35
2018-09-28T21:34:56.303Z,12.24
2018-09-28T21:37:25.374Z,12.34
2018-09-28T21:39:54.565Z,12.23
2018-09-28T21:42:23.659Z,12.33
2018-09-28T21:44:52.638Z,12.14
2018-09-28T21:47:21.553Z,12.22
2018-09-28T21:49:50.502Z,12.38
2018-09-28T21:52:19.470Z,12.03
2018-09-28T21:54:48.415Z,12.15
2018-09-28T21:57:17.358Z,12.15
2018-09-28T21:59:46.497Z,11.95
2018-09-28T22:02:15.425Z,12.25
2018-09-28T22:04:44.420Z,12.02
2018-09-28T22:07:13.390Z,11.90
2018-09-28T22:09:42.397Z,11.97
2018-09-28T22:12:11.772Z,11.75
2018-09-28T22:14:40.753Z,11.99
2018-09-28T22:17:09.698Z,11.85
2018-09-28T22:19:38.805Z,11.96
2018-09-28T22:22:07.940Z,11.94
2018-09-28T22:24:42.860Z,11.77
2018-09-28T22:27:12.926Z,11.68
2018-09-28T22:29:43.280Z,11.73
2018-09-28T22:32:13.174Z,11.60
2018-09-28T22:34:44.485Z,11.78
2018-09-28T22:37:14.496Z,11.68
2018-09-28T22:39:44.432Z,11.77
2018-09-28T22:42:14.810Z,11.70
2018-09-28T22:44:44.762Z,11.72
2018-09-28T22:47:14.724Z,11.68
2018-09-28T22:49:44.759Z,11.62
2018-09-28T22:52:13.906Z,11.52
2018-09-28T22:54:42.888Z,11.64
2018-09-28T22:57:11.820Z,11.55
2018-09-28T22:59:40.795Z,11.51
2018-09-28T23:02:09.753Z,11.53
2018-09-28T23:04:38.760Z,11.52
2018-09-28T23:07:07.782Z,11.56
2018-09-28T23:09:36.885Z,11.62
2018-09-28T23:12:05.855Z,11.44
2018-09-28T23:14:34.819Z,11.50
2018-09-28T23:17:03.768Z,11.39
2018-09-28T23:19:32.704Z,11.20
2018-09-28T23:22:01.668Z,11.45
2018-09-28T23:24:30.617Z,11.26
2018-09-28T23:26:59.836Z,11.08
2018-09-28T23:29:28.818Z,10.95
2018-09-28T23:31:57.754Z,11.05
2018-09-28T23:34:26.996Z,11.21
2018-09-28T23:36:55.951Z,10.96
2018-09-28T23:39:24.850Z,10.94
2018-09-28T23:41:53.794Z,10.69
2018-09-28T23:44:22.727Z,10.73
2018-09-28T23:46:51.680Z,10.64
2018-09-28T23:49:20.630Z,10.61
2018-09-28T23:51:49.989Z,10.71
2018-09-28T23:54:19.274Z,10.61
2018-09-28T23:56:48.182Z,10.58
2018-09-28T23:59:17.136Z,10.69
